Time;durP1;ratioP1;P1;durP2;ratioP2;P2;SDS_P1;SDS_P2;PMS_P1;PMS_P2;Temp;Humidity;BMP_temperature;BMP_pressure;BME280_temperature;BME280_humidity;BME280_pressure;Samples;Min_cycle;Max_cycle;Signal;HPM_P1;HPM_P2
2022/06/08 00:00:45;;;;;;;12.98;7.05;;;;;;;15.66;100.00;99420.53;12176939;19;21018;-80
2022/06/08 00:04:47;;;;;;;14.82;7.28;;;;;;;15.68;100.00;99412.78;12199287;19;20014;-80
2022/06/08 00:08:48;;;;;;;13.35;7.78;;;;;;;15.78;100.00;99411.00;12201990;19;20030;-80
2022/06/08 00:12:50;;;;;;;16.73;7.70;;;;;;;15.88;100.00;99400.63;12169081;19;20014;-81
2022/06/08 00:16:52;;;;;;;14.15;7.70;;;;;;;15.96;100.00;99399.13;12203335;19;20586;-80
2022/06/08 00:20:54;;;;;;;12.82;7.47;;;;;;;15.97;100.00;99391.63;12197706;19;20502;-80
2022/06/08 00:24:56;;;;;;;11.13;6.55;;;;;;;15.98;100.00;99393.31;12175955;19;20006;-80
2022/06/08 00:28:57;;;;;;;11.52;5.90;;;;;;;15.92;100.00;99395.31;12199206;19;20512;-80
2022/06/08 00:32:59;;;;;;;12.68;6.10;;;;;;;15.92;100.00;99392.53;12199218;19;20018;-80
2022/06/08 00:37:01;;;;;;;11.00;5.63;;;;;;;15.88;100.00;99386.75;12183944;19;20010;-80
2022/06/08 00:41:30;;;;;;;9.77;5.53;;;;;;;15.85;100.00;99381.75;12207996;19;20011;-80
2022/06/08 00:45:32;;;;;;;8.23;4.90;;;;;;;15.85;100.00;99376.19;12175299;19;20028;-80
2022/06/08 00:49:42;;;;;;;11.07;5.28;;;;;;;15.83;100.00;99372.91;12201203;19;20125;-79
2022/06/08 00:53:50;;;;;;;9.73;5.03;;;;;;;15.83;100.00;99367.34;12205007;19;20003;-79
2022/06/08 00:58:23;;;;;;;7.05;4.20;;;;;;;15.83;100.00;99370.13;12178449;19;20116;-80
2022/06/08 01:02:25;;;;;;;7.85;4.50;;;;;;;15.83;100.00;99366.53;12193539;19;20019;-80
2022/06/08 01:06:31;;;;;;;8.98;4.22;;;;;;;15.83;100.00;99361.78;12183973;19;20018;-79
2022/06/08 01:10:47;;;;;;;7.28;3.85;;;;;;;15.84;100.00;99369.00;12213627;19;20017;-80
2022/06/08 01:14:52;;;;;;;6.32;3.97;;;;;;;15.85;100.00;99358.69;12196824;19;20349;-80
2022/06/08 01:18:54;;;;;;;7.32;3.70;;;;;;;15.83;100.00;99359.00;12182322;19;20013;-80
2022/06/08 01:23:01;;;;;;;6.78;4.10;;;;;;;15.79;100.00;99359.88;12216559;19;20014;-79
2022/06/08 01:27:09;;;;;;;7.80;4.70;;;;;;;15.75;100.00;99365.22;12201800;19;20035;-79
2022/06/08 01:31:26;;;;;;;8.75;3.78;;;;;;;15.74;100.00;99359.97;12193598;19;20144;-79
2022/06/08 01:35:37;;;;;;;9.80;3.97;;;;;;;15.76;100.00;99352.97;12217406;19;20535;-80
2022/06/08 01:40:00;;;;;;;6.85;3.78;;;;;;;15.78;100.00;99356.28;12195086;19;20006;-79
2022/06/08 01:44:23;;;;;;;8.60;4.00;;;;;;;15.81;100.00;99346.53;12213907;19;20035;-80
2022/06/08 01:48:28;;;;;;;8.45;3.88;;;;;;;15.81;100.00;99346.53;12194519;19;20011;-81
2022/06/08 01:52:33;;;;;;;8.43;3.80;;;;;;;15.79;100.00;99346.81;12202178;19;20085;-81
2022/06/08 01:56:44;;;;;;;6.43;4.18;;;;;;;15.84;100.00;99343.97;12209752;19;20015;-80
2022/06/08 02:00:59;;;;;;;7.75;3.70;;;;;;;15.85;100.00;99337.28;12185879;19;20104;-80
2022/06/08 02:05:19;;;;;;;8.23;3.78;;;;;;;15.84;100.00;99334.81;12205878;19;20015;-81
2022/06/08 02:09:48;;;;;;;7.80;4.20;;;;;;;15.82;100.00;99328.72;12197455;19;20644;-81
2022/06/08 02:14:13;;;;;;;12.40;4.00;;;;;;;15.74;100.00;99321.91;12102939;19;2004240;-80
2022/06/08 02:18:34;;;;;;;8.82;3.50;;;;;;;15.68;100.00;99320.31;12201535;19;20767;-80
2022/06/08 02:22:41;;;;;;;8.10;4.25;;;;;;;15.63;100.00;99317.53;12181033;19;20011;-78
2022/06/08 02:27:03;;;;;;;9.93;4.65;;;;;;;15.55;100.00;99316.22;12209732;19;20022;-80
2022/06/08 02:31:11;;;;;;;10.02;4.10;;;;;;;15.50;100.00;99319.91;12187274;19;20468;-80
2022/06/08 02:35:19;;;;;;;9.73;3.78;;;;;;;15.46;100.00;99299.38;12202547;19;20006;-80
2022/06/08 02:39:27;;;;;;;8.18;4.10;;;;;;;15.43;100.00;99297.19;12212992;19;21667;-80
2022/06/08 02:43:56;;;;;;;7.38;4.22;;;;;;;15.49;100.00;99301.56;12186130;19;20028;-81
2022/06/08 02:48:09;;;;;;;9.80;4.18;;;;;;;15.52;100.00;99294.59;12210225;19;20007;-79
2022/06/08 02:52:22;;;;;;;6.82;3.53;;;;;;;15.56;100.00;99286.53;12182039;19;20132;-80
2022/06/08 02:56:56;;;;;;;10.48;3.90;;;;;;;15.58;100.00;99290.63;12201190;19;20029;-80
2022/06/08 03:01:05;;;;;;;5.53;3.13;;;;;;;15.59;100.00;99281.22;12171864;19;20060;-80
2022/06/08 03:05:15;;;;;;;7.95;3.70;;;;;;;15.62;100.00;99279.78;12209351;19;20034;-79
2022/06/08 03:09:18;;;;;;;9.73;3.88;;;;;;;15.64;100.00;99283.06;12199694;19;20027;-81
2022/06/08 03:13:28;;;;;;;8.43;3.35;;;;;;;15.71;100.00;99280.81;12179055;19;20125;-80
2022/06/08 03:17:33;;;;;;;8.25;3.67;;;;;;;15.76;100.00;99277.13;12200104;19;20668;-80
2022/06/08 03:21:36;;;;;;;4.82;3.20;;;;;;;15.82;100.00;99282.31;12178694;19;20011;-80
2022/06/08 03:25:39;;;;;;;7.45;3.30;;;;;;;15.87;100.00;99285.03;12209497;19;20009;-80
2022/06/08 03:29:41;;;;;;;8.80;3.20;;;;;;;15.97;100.00;99289.63;12203816;19;20487;-79
2022/06/08 03:33:43;;;;;;;7.65;3.17;;;;;;;16.09;100.00;99280.84;12174557;19;20117;-80
2022/06/08 03:37:49;;;;;;;6.45;3.25;;;;;;;16.18;100.00;99281.84;12190453;19;20015;-79
2022/06/08 03:41:53;;;;;;;4.90;2.85;;;;;;;16.28;100.00;99284.50;12191259;19;20010;-80
2022/06/08 03:45:58;;;;;;;6.72;3.10;;;;;;;16.38;100.00;99275.97;12173422;19;20078;-79
2022/06/08 03:50:03;;;;;;;13.18;3.40;;;;;;;16.46;100.00;99284.78;12202439;19;20018;-80
2022/06/08 03:54:12;;;;;;;10.63;2.70;;;;;;;16.55;100.00;99283.78;12199521;19;20014;-81
2022/06/08 03:58:16;;;;;;;4.68;2.85;;;;;;;16.62;100.00;99277.84;12174999;19;20085;-80
2022/06/08 04:02:19;;;;;;;4.32;2.47;;;;;;;16.75;100.00;99279.88;12201347;19;20014;-80
2022/06/08 04:06:23;;;;;;;6.05;2.95;;;;;;;16.90;100.00;99275.22;12183101;19;20020;-80
2022/06/08 04:10:27;;;;;;;3.70;2.10;;;;;;;17.01;100.00;99271.09;12199677;19;20010;-80
2022/06/08 04:14:31;;;;;;;5.68;2.60;;;;;;;17.09;100.00;99275.97;12187622;19;20017;-81
2022/06/08 04:18:36;;;;;;;7.88;3.05;;;;;;;17.13;100.00;99277.00;12183699;19;20575;-80
2022/06/08 04:22:38;;;;;;;6.40;2.45;;;;;;;17.12;100.00;99271.75;12198339;19;20003;-78
2022/06/08 04:26:41;;;;;;;5.60;2.75;;;;;;;17.12;100.00;99269.78;12208860;19;20015;-81
2022/06/08 04:30:51;;;;;;;5.32;2.42;;;;;;;17.07;100.00;99278.22;12186513;19;20051;-82
2022/06/08 04:34:53;;;;;;;7.35;2.33;;;;;;;17.11;100.00;99272.88;12201481;19;20007;-82
2022/06/08 04:38:58;;;;;;;4.57;2.30;;;;;;;17.14;100.00;99273.09;12216410;19;20095;-82
2022/06/08 04:43:02;;;;;;;5.68;3.03;;;;;;;17.16;100.00;99270.81;12191487;19;20015;-82
2022/06/08 04:47:04;;;;;;;5.32;2.50;;;;;;;17.19;100.00;99275.78;12204606;19;20014;-82
2022/06/08 04:51:08;;;;;;;4.70;2.30;;;;;;;17.19;100.00;99270.22;12223214;19;20120;-80
2022/06/08 04:55:13;;;;;;;5.00;2.20;;;;;;;17.24;100.00;99272.91;12186942;19;20070;-79
2022/06/08 04:59:17;;;;;;;5.88;2.42;;;;;;;17.29;100.00;99271.97;12209886;19;20038;-80
2022/06/08 05:03:26;;;;;;;9.60;2.95;;;;;;;17.21;100.00;99275.47;12183464;19;20031;-82
2022/06/08 05:07:28;;;;;;;7.95;2.50;;;;;;;17.32;100.00;99271.38;12207168;19;20015;-78
2022/06/08 05:11:31;;;;;;;6.70;2.58;;;;;;;17.51;100.00;99280.44;12199349;19;20010;-81
2022/06/08 05:15:37;;;;;;;4.68;2.88;;;;;;;17.62;100.00;99285.84;12192056;19;20460;-81
2022/06/08 05:19:39;;;;;;;5.72;2.80;;;;;;;17.63;100.00;99288.28;12203374;19;20006;-79
2022/06/08 05:23:43;;;;;;;9.63;2.45;;;;;;;17.68;100.00;99281.81;12210952;19;20043;-81
2022/06/08 05:27:51;;;;;;;4.97;2.70;;;;;;;17.67;100.00;99282.94;12191606;19;20011;-83
2022/06/08 05:31:54;;;;;;;5.05;2.00;;;;;;;17.67;100.00;99280.97;12203467;19;20010;-82
2022/06/08 05:35:55;;;;;;;3.80;2.30;;;;;;;17.72;100.00;99283.66;12205642;19;20015;-81
2022/06/08 05:39:57;;;;;;;5.13;3.60;;;;;;;17.69;100.00;99278.69;12195542;19;20018;-82
2022/06/08 05:44:01;;;;;;;10.18;3.90;;;;;;;17.65;100.00;99277.66;12210978;19;20517;-82
2022/06/08 05:48:04;;;;;;;6.85;2.47;;;;;;;17.59;100.00;99262.19;12209458;19;20007;-82
2022/06/08 05:52:09;;;;;;;6.57;3.60;;;;;;;17.45;100.00;99261.38;12190717;19;20010;-83
2022/06/08 05:56:12;;;;;;;9.77;3.65;;;;;;;17.34;100.00;99255.19;12201243;19;20011;-82
2022/06/08 06:00:23;;;;;;;9.27;2.63;;;;;;;17.40;100.00;99253.09;12204974;19;20010;-81
2022/06/08 06:04:24;;;;;;;4.75;2.92;;;;;;;17.74;100.00;99253.53;12194012;19;20006;-82
2022/06/08 06:08:29;;;;;;;5.70;2.45;;;;;;;18.11;99.87;99257.19;12209005;19;20488;-81
2022/06/08 06:12:40;;;;;;;5.45;2.58;;;;;;;18.54;99.42;99256.78;12188269;19;20007;-82
2022/06/08 06:16:42;;;;;;;6.53;2.75;;;;;;;18.87;96.50;99256.53;12204708;19;20027;-82
2022/06/08 06:20:44;;;;;;;5.20;1.92;;;;;;;19.06;94.46;99247.94;12190412;19;20460;-82
2022/06/08 06:24:54;;;;;;;3.75;1.92;;;;;;;19.31;89.82;99246.44;12186669;19;20495;-81
2022/06/08 06:29:16;;;;;;;5.45;2.10;;;;;;;19.75;88.69;99253.03;12195809;19;20879;-81
2022/06/08 06:33:41;;;;;;;7.35;2.60;;;;;;;19.93;85.46;99249.16;12183856;19;20047;-83
2022/06/08 06:37:42;;;;;;;5.32;1.88;;;;;;;20.13;85.31;99252.47;12211722;19;20472;-82
2022/06/08 06:41:46;;;;;;;10.80;2.47;;;;;;;20.37;82.58;99255.59;12214420;19;20007;-82
2022/06/08 06:45:49;;;;;;;6.72;1.95;;;;;;;20.62;83.38;99256.78;12183518;19;20605;-83
2022/06/08 06:49:59;;;;;;;6.20;2.38;;;;;;;20.47;80.38;99255.28;12209654;19;20015;-83
2022/06/08 06:54:05;;;;;;;6.43;2.23;;;;;;;20.43;80.49;99254.28;12196619;19;20736;-84
2022/06/08 06:58:09;;;;;;;6.43;2.42;;;;;;;20.46;79.64;99256.44;12162627;19;20030;-84
2022/06/08 07:02:14;;;;;;;7.63;2.40;;;;;;;20.60;79.73;99253.50;12207924;19;20369;-84
2022/06/08 07:06:16;;;;;;;6.70;2.47;;;;;;;20.56;77.67;99249.72;12211099;19;20751;-83
2022/06/08 07:10:20;;;;;;;6.88;2.70;;;;;;;20.76;76.28;99244.59;12189610;19;20011;-83
2022/06/08 07:14:24;;;;;;;6.28;2.33;;;;;;;20.82;76.01;99240.47;12220190;19;20014;-84
2022/06/08 07:18:38;;;;;;;5.45;2.53;;;;;;;20.88;74.39;99228.78;12198905;19;20086;-83
2022/06/08 07:22:41;;;;;;;5.43;1.75;;;;;;;21.02;73.81;99233.34;12212810;19;20503;-84
2022/06/08 07:26:42;;;;;;;9.10;2.33;;;;;;;21.00;73.97;99225.28;12214855;19;20089;-84
2022/06/08 07:30:44;;;;;;;4.63;1.50;;;;;;;;;;12197245;19;20461;-83
2022/06/08 07:34:46;;;;;;;5.72;1.95;;;;;;;21.17;70.79;99225.22;12205445;19;20027;-84
2022/06/08 07:38:47;;;;;;;7.07;1.65;;;;;;;21.29;71.54;99209.69;12219765;19;20016;-83
2022/06/08 07:42:50;;;;;;;7.75;1.77;;;;;;;21.29;68.82;99213.31;12190987;19;20638;-83
2022/06/08 07:46:51;;;;;;;2.65;1.35;;;;;;;21.41;69.09;99200.59;12208645;19;20047;-83
2022/06/08 07:50:54;;;;;;;5.65;1.52;;;;;;;21.74;68.65;99187.53;12218022;19;20010;-84
2022/06/08 07:54:56;;;;;;;4.77;1.63;;;;;;;22.06;68.56;99193.59;12231253;19;20009;-82
2022/06/08 07:58:59;;;;;;;5.57;1.80;;;;;;;22.30;64.56;99187.34;12223348;19;20007;-83
2022/06/08 08:03:00;;;;;;;9.05;2.53;;;;;;;22.39;64.60;99185.28;12212898;19;20005;-83
2022/06/08 08:07:03;;;;;;;5.75;1.35;;;;;;;22.46;63.95;99182.75;12181270;19;20003;-83
2022/06/08 08:11:06;;;;;;;3.92;1.00;;;;;;;22.64;62.92;99174.97;12209470;19;20011;-84
2022/06/08 08:15:10;;;;;;;6.03;1.55;;;;;;;23.01;60.89;99171.47;12210533;19;20035;-83
2022/06/08 08:19:12;;;;;;;;;;;;;;;23.17;60.39;99175.22;12187839;19;20013;-84
2022/06/08 08:23:14;;;;;;;;;;;;;;;23.26;58.51;99161.91;12217528;19;19925;-84
2022/06/08 08:27:16;;;;;;;8.07;1.50;;;;;;;23.50;58.76;99166.72;12239770;19;19914;-83
2022/06/08 08:31:19;;;;;;;;;;;;;;;23.67;57.83;99160.81;12203773;19;20360;-82
2022/06/08 08:35:27;;;;;;;5.90;1.83;;;;;;;23.90;56.06;99163.16;12235734;19;19915;-84
2022/06/08 08:39:29;;;;;;;7.15;1.95;;;;;;;24.04;55.42;99152.34;12204698;19;20073;-84
2022/06/08 08:43:38;;;;;;;7.05;1.98;;;;;;;24.41;56.42;99137.31;12231592;19;20070;-82
2022/06/08 08:48:06;;;;;;;5.75;1.70;;;;;;;24.64;54.36;99143.22;12229867;19;20011;-82
2022/06/08 08:52:24;;;;;;;7.10;2.22;;;;;;;24.91;53.43;99138.72;12201573;19;20029;-83
2022/06/08 08:56:38;;;;;;;8.32;1.25;;;;;;;25.00;52.73;99137.34;12219678;19;20082;-82
2022/06/08 09:00:48;;;;;;;5.95;2.22;;;;;;;25.42;52.08;99130.38;12210872;19;20363;-80
2022/06/08 09:04:51;;;;;;;6.22;2.00;;;;;;;25.75;52.73;99117.84;12223592;19;20011;-83
2022/06/08 09:09:00;;;;;;;;;;;;;;;25.61;52.07;99119.16;12218784;19;20029;-83
2022/06/08 09:13:06;;;;;;;3.42;1.33;;;;;;;25.91;51.46;99119.47;12194171;19;19902;-81
2022/06/08 09:17:13;;;;;;;5.57;1.90;;;;;;;26.31;50.23;99114.66;12218081;19;20011;-80
2022/06/08 09:21:34;;;;;;;3.15;1.55;;;;;;;26.19;47.57;99111.97;12215780;19;20038;-82
2022/06/08 09:25:35;;;;;;;5.82;1.83;;;;;;;26.36;48.41;99108.72;12202033;19;20050;-80
2022/06/08 09:29:49;;;;;;;5.47;2.40;;;;;;;26.59;45.94;99097.47;12220438;19;20031;-81
2022/06/08 09:34:06;;;;;;;5.63;1.63;;;;;;;26.43;46.89;99102.38;12194987;19;20943;-83
2022/06/08 09:38:12;;;;;;;5.82;2.10;;;;;;;25.90;46.86;99091.59;12216086;19;20763;-83
2022/06/08 09:42:36;;;;;;;;;;;;;;;;;;;;;
2022/06/08 09:51:48;;;;;;;4.57;1.63;;;;;;;25.53;46.34;99086.31;12185418;19;20027;-85
2022/06/08 09:56:29;;;;;;;5.25;1.67;;;;;;;25.71;45.21;99081.09;12216997;19;20007;-84
2022/06/08 10:00:49;;;;;;;4.15;1.00;;;;;;;26.29;44.15;99080.31;12194773;19;20014;-85
2022/06/08 10:05:01;;;;;;;8.52;2.05;;;;;;;27.06;42.18;99065.19;12209991;19;20014;-84
2022/06/08 10:09:24;;;;;;;5.97;1.17;;;;;;;27.24;41.15;99071.16;12204705;19;20006;-84
2022/06/08 10:13:35;;;;;;;2.63;1.20;;;;;;;27.09;41.26;99067.25;12191393;19;20035;-84
2022/06/08 10:17:50;;;;;;;36.42;10.90;;;;;;;26.45;41.44;99064.09;12203758;19;20010;-84
2022/06/08 10:21:52;;;;;;;7.35;2.45;;;;;;;25.95;42.44;99065.09;12193337;19;20046;-84
2022/06/08 10:26:00;;;;;;;4.35;1.33;;;;;;;25.29;43.62;99059.19;12209653;19;20042;-85
2022/06/08 10:30:21;;;;;;;5.50;1.33;;;;;;;25.23;44.85;99060.66;12206843;19;20093;-85
2022/06/08 10:34:31;;;;;;;3.95;1.33;;;;;;;25.13;44.56;99047.06;12180832;19;20386;-84
2022/06/08 10:38:37;;;;;;;2.70;1.10;;;;;;;25.19;45.38;99052.09;12217348;19;20015;-84
2022/06/08 10:42:46;;;;;;;5.28;1.67;;;;;;;25.46;45.83;99047.50;12188024;19;20083;-84
2022/06/08 10:46:48;;;;;;;4.70;1.45;;;;;;;25.83;44.21;99044.28;12209170;19;20010;-84
2022/06/08 10:51:10;;;;;;;;;;;;;;;25.94;43.48;99030.41;12223911;19;20027;-84
2022/06/08 10:55:14;;;;;;;3.92;1.40;;;;;;;26.41;43.29;99022.84;12176832;19;19910;-83
2022/06/08 10:59:24;;;;;;;6.00;1.38;;;;;;;26.66;42.18;99015.66;12217610;19;20014;-84
2022/06/08 11:03:40;;;;;;;6.90;1.67;;;;;;;26.86;41.90;99009.91;12196781;19;20022;-84
2022/06/08 11:08:04;;;;;;;6.43;1.50;;;;;;;27.23;41.99;99008.13;12214795;19;20259;-84
2022/06/08 11:12:12;;;;;;;2.40;1.23;;;;;;;27.57;39.97;98998.88;12213139;19;20027;-80
2022/06/08 11:16:30;;;;;;;4.03;1.60;;;;;;;27.44;40.54;98985.00;12196647;19;20084;-84
2022/06/08 11:20:33;;;;;;;3.90;1.05;;;;;;;26.42;41.82;98991.41;12229778;19;20009;-83
2022/06/08 11:24:42;;;;;;;6.97;1.30;;;;;;;25.91;42.39;98981.16;12223767;19;20011;-83
2022/06/08 11:28:45;;;;;;;3.33;1.10;;;;;;;25.67;42.79;98978.59;12220962;19;20796;-85
2022/06/08 11:32:50;;;;;;;5.60;1.35;;;;;;;24.98;42.87;98967.78;12207691;19;20031;-80
2022/06/08 11:37:13;;;;;;;5.25;1.10;;;;;;;24.65;43.99;98956.13;12184131;19;20006;-86
2022/06/08 11:41:31;;;;;;;5.00;1.35;;;;;;;24.54;43.43;98945.44;12210766;19;20019;-83
2022/06/08 11:45:42;;;;;;;6.80;1.55;;;;;;;24.42;43.83;98947.47;12177939;19;20015;-83
2022/06/08 11:49:54;;;;;;;4.93;1.15;;;;;;;24.40;43.50;98955.47;12224355;19;20014;-84
2022/06/08 11:53:58;;;;;;;8.37;1.30;;;;;;;24.32;44.58;98954.47;12208089;19;20629;-84
2022/06/08 11:58:05;;;;;;;4.68;1.10;;;;;;;24.37;44.62;98951.41;12187552;19;20058;-84
2022/06/08 12:02:25;;;;;;;5.05;1.52;;;;;;;24.55;44.85;98947.06;12206016;19;20027;-84
2022/06/08 12:06:30;;;;;;;3.38;1.25;;;;;;;24.58;43.85;98944.69;12190570;19;20790;-84
2022/06/08 12:10:34;;;;;;;4.90;1.30;;;;;;;24.27;43.88;98947.13;12206428;19;20081;-84
2022/06/08 12:14:39;;;;;;;8.98;1.52;;;;;;;24.06;44.40;98938.09;12205500;19;20539;-84
2022/06/08 12:18:44;;;;;;;3.95;1.10;;;;;;;23.84;45.26;98933.91;12184153;19;20021;-83
2022/06/08 12:22:53;;;;;;;4.53;1.20;;;;;;;23.66;45.43;98931.38;12216782;19;20380;-83
2022/06/08 12:26:54;;;;;;;3.83;1.40;;;;;;;23.57;45.67;98933.53;12211090;19;20066;-84
2022/06/08 12:30:58;;;;;;;3.60;1.25;;;;;;;23.42;46.53;98925.84;12190383;19;20003;-83
2022/06/08 12:35:18;;;;;;;4.82;1.40;;;;;;;23.42;46.86;98920.22;12195315;19;20078;-83
2022/06/08 12:39:27;;;;;;;7.05;1.60;;;;;;;23.52;47.39;98919.72;12200676;19;20010;-84
2022/06/08 12:43:46;;;;;;;6.63;1.45;;;;;;;23.65;47.99;98920.50;12178206;19;20006;-84
2022/06/08 12:47:50;;;;;;;6.75;1.00;;;;;;;23.59;47.57;98913.50;12208654;19;20031;-84
2022/06/08 12:51:55;;;;;;;3.92;1.23;;;;;;;23.55;47.37;98906.94;12188983;19;20018;-83
2022/06/08 12:55:57;;;;;;;2.42;1.00;;;;;;;23.51;46.89;98904.03;12208503;19;20007;-83
2022/06/08 13:00:01;;;;;;;5.07;1.42;;;;;;;23.64;47.83;98902.78;12197235;19;20011;-84
2022/06/08 13:04:03;;;;;;;6.60;1.23;;;;;;;24.28;47.35;98908.53;12173161;19;20031;-83
2022/06/08 13:08:05;;;;;;;5.82;1.65;;;;;;;25.27;46.04;98902.84;12205312;19;20030;-84
2022/06/08 13:12:11;;;;;;;7.50;1.23;;;;;;;25.97;43.78;98902.66;12212906;19;20066;-84
2022/06/08 13:16:29;;;;;;;4.90;1.15;;;;;;;25.88;42.20;98905.72;12190203;19;20263;-84
2022/06/08 13:20:37;;;;;;;3.42;0.93;;;;;;;25.67;43.41;98910.88;12226709;19;20045;-85
2022/06/08 13:24:39;;;;;;;5.72;1.48;;;;;;;25.46;44.00;98912.13;12205529;19;20127;-84
2022/06/08 13:28:41;;;;;;;3.30;1.23;;;;;;;25.04;45.23;98911.97;12228353;19;20584;-85
2022/06/08 13:32:44;;;;;;;4.82;1.00;;;;;;;24.77;46.08;98919.41;12222237;19;20026;-84
2022/06/08 13:36:53;;;;;;;6.63;1.27;;;;;;;24.43;47.08;98918.19;12200121;19;20751;-84
2022/06/08 13:40:55;;;;;;;5.82;1.20;;;;;;;24.21;47.26;98916.78;12220219;19;20007;-83
2022/06/08 13:44:57;;;;;;;5.20;1.27;;;;;;;24.19;48.50;98922.78;12223040;19;20070;-83
2022/06/08 13:48:59;;;;;;;3.90;1.10;;;;;;;23.94;49.72;98924.91;12203948;19;20547;-82
2022/06/08 13:53:11;;;;;;;7.95;1.40;;;;;;;23.65;51.44;98920.50;12224486;19;20015;-83
2022/06/08 13:57:15;;;;;;;5.68;1.48;;;;;;;23.51;52.46;98920.09;12213431;19;20006;-82
2022/06/08 14:01:27;;;;;;;3.55;1.13;;;;;;;23.46;52.81;98923.97;12201931;19;20055;-83
2022/06/08 14:14:17;;;;;;;3.33;1.20;;;;;;;23.39;55.71;98937.81;12209727;19;20007;-82
2022/06/08 14:18:27;;;;;;;6.72;1.73;;;;;;;22.98;57.14;98932.16;12220090;19;20007;-82
2022/06/08 14:22:36;;;;;;;1.90;1.15;;;;;;;22.34;59.90;98938.50;12203273;19;20003;-80
2022/06/08 14:26:38;;;;;;;4.55;1.90;;;;;;;22.06;62.56;98929.88;12230643;19;20052;-83
2022/06/08 14:30:43;;;;;;;5.75;1.60;;;;;;;21.77;63.63;98940.13;12210306;19;20024;-81
2022/06/08 14:34:48;;;;;;;5.70;2.42;;;;;;;21.65;64.45;98942.84;12207076;19;20023;-81
2022/06/08 14:38:50;;;;;;;6.82;1.90;;;;;;;21.67;66.41;98959.34;12201549;19;20074;-77
2022/06/08 14:42:57;;;;;;;3.25;1.63;;;;;;;21.74;65.89;98956.78;12187379;19;20011;-78
2022/06/08 14:47:05;;;;;;;5.68;1.63;;;;;;;21.59;68.13;98966.66;12204296;19;20539;-77
2022/06/08 14:51:10;;;;;;;6.35;1.80;;;;;;;21.32;69.31;98984.84;12224587;19;20046;-78
2022/06/08 14:59:37;;;;;;;8.48;2.85;;;;;;;20.85;70.38;98982.19;12227456;19;20058;-83
2022/06/08 15:03:38;;;;;;;;;;;;;;;20.67;71.29;98987.91;12201889;19;20010;-84
2022/06/08 15:07:40;;;;;;;9.75;1.95;;;;;;;20.67;72.21;98993.50;12216502;19;19989;-83
2022/06/08 15:11:59;;;;;;;11.85;7.28;;;;;;;20.63;75.11;98991.69;12222590;19;20015;-83
2022/06/08 15:16:01;;;;;;;7.25;3.08;;;;;;;20.43;77.75;98984.81;12201782;19;20003;-83
2022/06/08 15:20:11;;;;;;;7.90;2.40;;;;;;;20.42;79.75;98994.38;12222799;19;20006;-83
2022/06/08 15:24:13;;;;;;;7.60;2.15;;;;;;;20.53;80.73;99004.09;12212006;19;20354;-85
2022/06/08 15:28:35;;;;;;;5.27;2.40;;;;;;;20.53;81.44;99004.09;12197370;19;20006;-84
2022/06/08 15:32:36;;;;;;;6.40;2.42;;;;;;;20.40;80.99;99005.09;12209057;19;20020;-84
2022/06/08 15:36:38;;;;;;;19.88;6.30;;;;;;;19.73;91.40;99026.13;12192047;19;19998;-82
2022/06/08 15:40:58;;;;;;;17.75;6.47;;;;;;;18.75;100.00;99019.06;12228079;19;20003;-81
2022/06/08 15:45:15;;;;;;;20.03;6.50;;;;;;;18.18;100.00;99017.00;12224902;19;20018;-80
2022/06/08 15:49:19;;;;;;;17.17;6.70;;;;;;;17.92;100.00;99017.66;12187395;19;20034;-81
2022/06/08 15:53:28;;;;;;;10.27;3.53;;;;;;;17.74;100.00;99016.66;12203454;19;20010;-81
2022/06/08 15:57:33;;;;;;;18.38;6.35;;;;;;;17.73;100.00;99017.81;12174009;19;20015;-80
2022/06/08 16:01:35;;;;;;;23.33;9.23;;;;;;;17.69;100.00;99029.91;12204973;19;20039;-81
2022/06/08 16:05:38;;;;;;;18.52;8.30;;;;;;;17.67;100.00;99030.22;12196816;19;20472;-80
2022/06/08 16:09:41;;;;;;;22.70;9.07;;;;;;;17.64;100.00;99028.06;12176945;19;20020;-81
2022/06/08 16:13:42;;;;;;;23.60;8.52;;;;;;;17.61;100.00;99020.34;12202231;19;20027;-79
2022/06/08 16:17:44;;;;;;;18.65;8.13;;;;;;;17.51;100.00;99015.00;12200843;19;20070;-82
2022/06/08 16:21:46;;;;;;;24.20;9.55;;;;;;;17.52;100.00;99022.25;12184869;19;20011;-80
2022/06/08 16:25:47;;;;;;;27.75;10.90;;;;;;;17.43;100.00;99012.97;12212631;19;20618;-82
2022/06/08 16:29:49;;;;;;;18.13;8.57;;;;;;;17.37;100.00;99008.66;12187558;19;20015;-79
2022/06/08 16:33:53;;;;;;;26.33;10.02;;;;;;;17.26;100.00;99016.44;12171756;19;20086;-82
2022/06/08 16:37:56;;;;;;;14.50;7.47;;;;;;;17.28;100.00;99003.00;12197152;19;20014;-81
2022/06/08 16:41:58;;;;;;;23.33;9.02;;;;;;;17.36;100.00;99002.28;12200773;19;22027;-81
2022/06/08 16:46:00;;;;;;;18.95;9.23;;;;;;;17.36;100.00;99001.44;12188665;19;20090;-81
2022/06/08 16:50:04;;;;;;;24.73;9.43;;;;;;;17.37;100.00;99003.09;12217330;19;20007;-80
2022/06/08 16:54:07;;;;;;;24.13;10.27;;;;;;;17.39;100.00;99000.81;12205745;19;20014;-82
2022/06/08 17:02:29;;;;;;;22.67;9.02;;;;;;;17.41;100.00;99002.16;12203081;19;20014;-80
2022/06/08 17:06:31;;;;;;;25.40;8.82;;;;;;;17.42;100.00;99001.00;12184831;19;20018;-81
2022/06/08 17:10:33;;;;;;;27.88;8.80;;;;;;;17.46;100.00;99001.19;12206372;19;20090;-80
2022/06/08 17:14:37;;;;;;;27.40;8.75;;;;;;;17.47;100.00;99006.47;12200128;19;20025;-80
2022/06/08 17:18:40;;;;;;;16.30;7.20;;;;;;;17.50;100.00;99003.06;12180054;19;20593;-79
2022/06/08 17:22:42;;;;;;;28.20;8.93;;;;;;;17.60;100.00;99003.94;12212587;19;20003;-83
2022/06/08 17:26:44;;;;;;;17.13;7.78;;;;;;;17.65;100.00;99007.44;12206638;19;20105;-81
2022/06/08 17:30:45;;;;;;;21.88;8.05;;;;;;;17.50;100.00;98999.44;12198225;19;20019;-81
2022/06/08 17:34:47;;;;;;;17.05;7.07;;;;;;;17.44;100.00;99001.53;12199148;19;20058;-81
2022/06/08 17:38:49;;;;;;;13.98;7.22;;;;;;;17.43;100.00;99001.81;12210506;19;20492;-81
2022/06/08 17:42:50;;;;;;;19.13;7.97;;;;;;;17.42;100.00;99003.78;12191382;19;20516;-79
2022/06/08 17:46:54;;;;;;;25.00;7.85;;;;;;;17.37;100.00;98997.53;12201452;19;20003;-81
2022/06/08 17:50:58;;;;;;;18.23;7.30;;;;;;;17.19;100.00;98993.75;12207674;19;20027;-81
2022/06/08 17:55:00;;;;;;;22.20;7.90;;;;;;;17.24;100.00;99002.00;12182074;19;20017;-81
2022/06/08 17:59:04;;;;;;;21.77;9.27;;;;;;;17.29;100.00;99002.72;12196102;19;20422;-80
2022/06/08 18:03:07;;;;;;;15.48;7.65;;;;;;;17.16;100.00;99003.56;12205619;19;20002;-80
2022/06/08 18:07:11;;;;;;;21.02;9.88;;;;;;;17.13;100.00;99014.50;12181129;19;20007;-81
2022/06/08 18:15:40;;;;;;;25.38;9.65;;;;;;;17.10;100.00;98999.25;12171928;19;20014;-80
2022/06/08 18:19:41;;;;;;;26.77;10.93;;;;;;;17.08;100.00;99009.88;12207812;19;20011;-79
2022/06/08 18:23:43;;;;;;;29.13;10.48;;;;;;;17.03;100.00;98999.69;12238493;19;20039;-80
2022/06/08 18:27:49;;;;;;;22.52;10.50;;;;;;;17.05;100.00;99002.16;12187618;19;20102;-80
2022/06/08 18:31:51;;;;;;;19.67;8.38;;;;;;;16.90;100.00;99008.06;12205699;19;20007;-81
2022/06/08 18:35:54;;;;;;;23.63;8.90;;;;;;;16.84;100.00;99007.34;12208303;19;20014;-80
2022/06/08 18:39:55;;;;;;;24.23;8.73;;;;;;;16.73;100.00;99017.00;12189735;19;20507;-80
2022/06/08 18:43:59;;;;;;;23.42;9.27;;;;;;;16.74;100.00;99004.72;12213195;19;20031;-80
2022/06/08 18:48:02;;;;;;;24.35;8.88;;;;;;;16.72;100.00;99015.38;12211742;19;20723;-80
2022/06/08 18:52:05;;;;;;;23.88;9.85;;;;;;;16.68;100.00;99014.31;12188585;19;20013;-79
2022/06/08 18:56:14;;;;;;;19.75;7.65;;;;;;;16.63;100.00;99018.03;12204213;19;20124;-79
2022/06/08 19:00:18;;;;;;;20.10;8.55;;;;;;;16.63;100.00;99018.03;12209762;19;20023;-79
2022/06/08 19:04:27;;;;;;;25.98;9.68;;;;;;;16.63;100.00;99012.47;12188747;19;20015;-79
2022/06/08 19:08:28;;;;;;;22.67;9.52;;;;;;;16.68;100.00;99028.22;12207589;19;20349;-80
2022/06/08 19:12:31;;;;;;;25.35;10.10;;;;;;;16.72;100.00;99021.75;12186859;19;20007;-79
2022/06/08 19:16:33;;;;;;;27.25;9.75;;;;;;;16.65;100.00;99038.00;12209514;19;20014;-79
2022/06/08 19:20:41;;;;;;;26.33;9.48;;;;;;;16.62;100.00;99039.44;12207588;19;20018;-79
2022/06/08 19:24:42;;;;;;;30.52;11.43;;;;;;;16.63;100.00;99041.13;12191359;19;20023;-79
2022/06/08 19:28:44;;;;;;;25.65;10.57;;;;;;;16.64;100.00;99047.50;12205341;19;20011;-79